Time;durP1;ratioP1;P1;durP2;ratioP2;P2;SDS_P1;SDS_P2;PMS_P1;PMS_P2;Temp;Humidity;BMP_temperature;BMP_pressure;BME280_temperature;BME280_humidity;BME280_pressure;Samples;Min_cycle;Max_cycle;Signal;HPM_P1;HPM_P2
2023/01/21 00:00:42;;;;;;;51.90;28.90;;;2.50;99.90;;;;;;5036014;28;20110;-80
2023/01/21 00:03:08;;;;;;;52.88;30.45;;;2.50;99.90;;;;;;5019450;28;20041;-80
2023/01/21 00:05:33;;;;;;;59.38;31.35;;;2.60;99.90;;;;;;5037236;28;20116;-79
2023/01/21 00:07:59;;;;;;;55.38;30.25;;;2.60;99.90;;;;;;5037446;28;20064;-79
2023/01/21 00:10:25;;;;;;;54.33;30.80;;;2.40;99.90;;;;;;5036272;28;20043;-79
2023/01/21 00:12:51;;;;;;;54.40;29.35;;;2.50;99.90;;;;;;5036059;28;20034;-80
2023/01/21 00:15:16;;;;;;;56.90;30.42;;;2.40;99.90;;;;;;5035463;28;20026;-80
2023/01/21 00:17:42;;;;;;;53.55;28.48;;;2.30;99.90;;;;;;5036557;28;20033;-79
2023/01/21 00:20:09;;;;;;;50.35;27.67;;;2.20;99.90;;;;;;5036284;28;20111;-80
2023/01/21 00:22:35;;;;;;;50.40;28.05;;;2.40;99.90;;;;;;5035614;28;20508;-73
2023/01/21 00:25:01;;;;;;;50.53;28.67;;;2.50;99.90;;;;;;5034697;28;20112;-72
2023/01/21 00:27:26;;;;;;;49.20;27.10;;;2.50;99.90;;;;;;5035654;28;20026;-72
2023/01/21 00:29:52;;;;;;;51.35;28.65;;;2.50;99.90;;;;;;5034659;28;20087;-72
2023/01/21 00:32:18;;;;;;;57.10;29.17;;;2.50;99.90;;;;;;5034586;28;20132;-73
2023/01/21 00:34:44;;;;;;;53.72;29.17;;;2.40;99.90;;;;;;5034880;28;20382;-73
2023/01/21 00:37:10;;;;;;;54.60;28.83;;;2.50;99.90;;;;;;5034198;28;20099;-72
2023/01/21 00:39:35;;;;;;;46.63;26.73;;;2.60;99.90;;;;;;5035905;28;20026;-73
2023/01/21 00:42:03;;;;;;;51.13;28.35;;;2.60;99.90;;;;;;5034299;28;20041;-72
2023/01/21 00:44:29;;;;;;;56.15;28.08;;;2.70;99.90;;;;;;5034009;28;20053;-72
2023/01/21 00:46:55;;;;;;;52.53;27.90;;;2.50;99.90;;;;;;5034298;28;20120;-72
2023/01/21 00:49:20;;;;;;;48.55;28.05;;;2.60;99.90;;;;;;5033251;28;20544;-73
2023/01/21 00:51:46;;;;;;;49.65;28.30;;;2.60;99.90;;;;;;5034428;28;20116;-72
2023/01/21 00:54:11;;;;;;;52.10;28.65;;;2.40;99.90;;;;;;5034514;28;20036;-72
2023/01/21 00:56:37;;;;;;;55.60;30.02;;;2.50;99.90;;;;;;5034336;28;20130;-72
2023/01/21 00:59:03;;;;;;;52.38;28.73;;;2.40;99.90;;;;;;5034629;28;20554;-72
2023/01/21 01:01:33;;;;;;;52.25;28.85;;;2.40;99.90;;;;;;5034064;28;20061;-72
2023/01/21 01:03:59;;;;;;;49.22;28.20;;;2.40;99.90;;;;;;5018988;28;20370;-72
2023/01/21 01:06:24;;;;;;;52.05;27.70;;;2.40;99.90;;;;;;5034489;28;20026;-72
2023/01/21 01:08:50;;;;;;;48.47;26.70;;;2.50;99.90;;;;;;5034359;28;20034;-72
2023/01/21 01:11:17;;;;;;;55.30;28.00;;;2.40;99.90;;;;;;5033680;28;20029;-72
2023/01/21 01:13:43;;;;;;;52.33;28.33;;;2.30;99.90;;;;;;5017603;28;20057;-72
2023/01/21 01:16:13;;;;;;;50.38;27.40;;;2.10;99.90;;;;;;5035009;28;20034;-72
2023/01/21 01:18:39;;;;;;;49.33;26.17;;;2.10;99.90;;;;;;5033895;28;20036;-72
2023/01/21 01:21:07;;;;;;;51.17;26.90;;;2.10;99.90;;;;;;5034991;28;20033;-72
2023/01/21 01:23:33;;;;;;;49.30;26.83;;;2.10;99.90;;;;;;5034764;28;20029;-72
2023/01/21 01:26:01;;;;;;;49.40;27.42;;;2.20;99.90;;;;;;5034819;28;20478;-72
2023/01/21 01:28:28;;;;;;;50.33;26.77;;;2.10;99.90;;;;;;5035003;28;20030;-72
2023/01/21 01:30:54;;;;;;;53.33;27.58;;;1.80;99.90;;;;;;5034930;28;20030;-72
2023/01/21 01:33:20;;;;;;;52.78;27.67;;;1.70;99.90;;;;;;5034931;28;20418;-72
2023/01/21 01:35:47;;;;;;;48.03;25.95;;;1.60;99.90;;;;;;5034675;28;20031;-72
2023/01/21 01:38:14;;;;;;;50.53;26.92;;;1.60;99.90;;;;;;5033953;28;20029;-73
2023/01/21 01:40:40;;;;;;;52.15;26.85;;;1.60;99.90;;;;;;5033485;28;20454;-72
2023/01/21 01:43:14;;;;;;;52.42;25.60;;;1.60;99.90;;;;;;5036047;28;20038;-72
2023/01/21 01:45:40;;;;;;;52.10;26.52;;;1.70;99.90;;;;;;5038541;28;20029;-71
2023/01/21 01:48:07;;;;;;;53.05;28.00;;;1.90;99.90;;;;;;5039168;28;20397;-72
2023/01/21 01:50:35;;;;;;;48.05;26.55;;;1.90;99.90;;;;;;5037237;28;20037;-72
2023/01/21 01:53:01;;;;;;;42.50;24.25;;;2.00;99.90;;;;;;5034674;28;20030;-73
2023/01/21 01:55:30;;;;;;;45.58;26.50;;;2.00;99.90;;;;;;5034034;28;20037;-72
2023/01/21 01:57:56;;;;;;;51.65;27.23;;;1.90;99.90;;;;;;5034049;28;20187;-72
2023/01/21 02:00:24;;;;;;;48.67;26.52;;;1.90;99.90;;;;;;5032876;28;20034;-73
2023/01/21 02:05:38;;;;;;;49.80;26.55;;;1.80;99.90;;;;;;5033981;28;20051;-73
2023/01/21 02:08:05;;;;;;;47.97;25.40;;;1.80;99.90;;;;;;5033104;28;20116;-72
2023/01/21 02:10:33;;;;;;;46.35;26.35;;;1.80;99.90;;;;;;5032457;28;20064;-72
2023/01/21 02:12:59;;;;;;;48.17;25.20;;;1.80;99.90;;;;;;5032575;28;20485;-73
2023/01/21 02:15:33;;;;;;;49.50;25.92;;;1.80;99.90;;;;;;5033900;28;20033;-73
2023/01/21 02:17:59;;;;;;;52.30;26.70;;;1.90;99.90;;;;;;5033717;28;20032;-73
2023/01/21 02:20:55;;;;;;;47.30;24.88;;;1.80;99.90;;;;;;5032669;28;20025;-72
2023/01/21 02:23:29;;;;;;;44.60;24.58;;;1.70;99.90;;;;;;5033802;28;20116;-72
2023/01/21 02:26:16;;;;;;;44.42;24.70;;;1.70;99.90;;;;;;5034256;28;20033;-72
2023/01/21 02:28:51;;;;;;;49.38;25.45;;;1.70;99.90;;;;;;5033200;28;20079;-72
2023/01/21 02:31:30;;;;;;;50.38;26.52;;;1.80;99.90;;;;;;5032851;28;20056;-73
2023/01/21 02:34:21;;;;;;;44.22;23.60;;;1.90;99.90;;;;;;5032452;28;20076;-72
2023/01/21 02:37:04;;;;;;;48.50;25.38;;;1.80;99.90;;;;;;5033363;28;20140;-72
2023/01/21 02:39:49;;;;;;;46.97;24.65;;;1.80;99.90;;;;;;5032056;28;20033;-72
2023/01/21 02:42:17;;;;;;;47.75;25.17;;;1.90;99.90;;;;;;5032051;28;20159;-73
2023/01/21 02:45:03;;;;;;;47.63;25.00;;;1.80;99.90;;;;;;5033422;28;20147;-72
2023/01/21 02:47:46;;;;;;;48.33;24.55;;;1.90;99.90;;;;;;5032922;28;20053;-71
2023/01/21 02:50:22;;;;;;;47.90;24.63;;;1.90;99.90;;;;;;5033501;28;20067;-71
2023/01/21 02:53:01;;;;;;;46.15;26.73;;;2.00;99.90;;;;;;5032155;28;20462;-71
2023/01/21 02:55:33;;;;;;;42.63;24.40;;;1.80;99.90;;;;;;5033223;28;20056;-72
2023/01/21 02:58:09;;;;;;;47.83;26.17;;;1.70;99.90;;;;;;5033151;28;20044;-72
2023/01/21 03:01:03;;;;;;;49.63;26.75;;;1.90;99.90;;;;;;5032960;28;20029;-72
2023/01/21 03:03:40;;;;;;;49.50;26.88;;;1.80;99.90;;;;;;5033181;28;20033;-71
2023/01/21 03:06:18;;;;;;;53.15;26.60;;;1.60;99.90;;;;;;5032944;28;20032;-71
2023/01/21 03:08:51;;;;;;;48.90;25.73;;;1.60;99.90;;;;;;5031426;28;20044;-72
2023/01/21 03:11:19;;;;;;;51.40;26.80;;;1.60;99.90;;;;;;5031473;28;20120;-73
2023/01/21 03:17:05;;;;;;;45.70;24.40;;;1.60;99.90;;;;;;5032951;28;20036;-72
2023/01/21 03:19:46;;;;;;;51.47;26.27;;;1.50;99.90;;;;;;5029998;28;20038;-71
2023/01/21 03:22:16;;;;;;;51.45;25.58;;;1.60;99.90;;;;;;5032718;28;20447;-71
2023/01/21 03:24:45;;;;;;;51.97;26.65;;;1.70;99.90;;;;;;5032889;28;20097;-72
2023/01/21 03:27:15;;;;;;;45.90;24.83;;;1.70;99.90;;;;;;5032891;28;20022;-73
2023/01/21 03:29:43;;;;;;;51.88;27.77;;;1.60;99.90;;;;;;5031933;28;20033;-73
2023/01/21 03:32:13;;;;;;;47.92;25.52;;;1.60;99.90;;;;;;5035516;28;20059;-73
2023/01/21 03:34:43;;;;;;;48.05;25.80;;;1.60;99.90;;;;;;5040248;28;20033;-72
2023/01/21 03:37:15;;;;;;;50.47;25.70;;;1.80;99.90;;;;;;5038003;28;20026;-72
2023/01/21 03:40:02;;;;;;;49.60;26.23;;;1.90;99.90;;;;;;5033542;28;20482;-72
2023/01/21 03:42:28;;;;;;;49.75;25.65;;;1.90;99.90;;;;;;5032646;28;20034;-72
2023/01/21 03:44:54;;;;;;;48.53;26.48;;;2.10;99.90;;;;;;5032543;28;20032;-72
2023/01/21 03:47:19;;;;;;;48.65;25.77;;;2.10;99.90;;;;;;5032326;28;20448;-71
2023/01/21 03:50:03;;;;;;;46.60;25.90;;;2.10;99.90;;;;;;5031308;28;20536;-72
2023/01/21 03:52:28;;;;;;;;;;;2.00;99.90;;;;;;5032339;28;20091;-71
2023/01/21 03:54:54;;;;;;;45.15;25.45;;;2.20;99.90;;;;;;5032646;28;19905;-72
2023/01/21 03:57:20;;;;;;;51.33;25.83;;;2.10;99.90;;;;;;5031150;28;20389;-71
2023/01/21 03:59:46;;;;;;;50.40;26.08;;;2.00;99.90;;;;;;5032349;28;20029;-72
2023/01/21 04:02:11;;;;;;;53.75;27.88;;;1.90;99.90;;;;;;5014401;28;20045;-72
2023/01/21 04:04:37;;;;;;;47.90;25.38;;;1.80;99.90;;;;;;5032773;28;20040;-72
2023/01/21 04:07:03;;;;;;;51.83;28.23;;;1.70;99.90;;;;;;5031943;28;20434;-72
2023/01/21 04:09:29;;;;;;;53.80;25.85;;;1.80;99.90;;;;;;5031744;28;20422;-73
2023/01/21 04:11:54;;;;;;;47.35;25.20;;;1.70;99.90;;;;;;5014532;28;20041;-73
2023/01/21 04:14:20;;;;;;;51.20;26.52;;;1.80;99.90;;;;;;5031066;28;20033;-73
2023/01/21 04:16:46;;;;;;;52.45;26.65;;;1.70;99.90;;;;;;5032405;28;20030;-72
2023/01/21 04:19:11;;;;;;;49.45;27.05;;;1.70;99.90;;;;;;5014673;28;20026;-73
2023/01/21 04:21:37;;;;;;;50.15;26.45;;;1.80;99.90;;;;;;5032406;28;20121;-72
2023/01/21 04:24:03;;;;;;;47.92;25.05;;;1.90;99.90;;;;;;5033017;28;20033;-73
2023/01/21 04:26:29;;;;;;;52.13;27.17;;;2.00;99.90;;;;;;5034268;28;20109;-74
2023/01/21 04:28:54;;;;;;;48.97;27.13;;;2.10;99.90;;;;;;5035261;28;20037;-73
2023/01/21 04:31:20;;;;;;;54.35;27.58;;;2.20;99.90;;;;;;5034394;28;20053;-72
2023/01/21 04:33:45;;;;;;;57.78;29.23;;;2.10;99.90;;;;;;5034282;28;20103;-72
2023/01/21 04:36:12;;;;;;;51.22;26.63;;;2.00;99.90;;;;;;5034318;28;20034;-72
2023/01/21 04:38:38;;;;;;;51.53;28.90;;;2.00;99.90;;;;;;5035720;28;20030;-72
2023/01/21 04:41:03;;;;;;;57.00;28.05;;;2.00;99.90;;;;;;5035529;28;20029;-72
2023/01/21 04:43:29;;;;;;;52.65;28.10;;;1.90;99.90;;;;;;5017628;28;20136;-72
2023/01/21 04:45:55;;;;;;;52.40;27.80;;;1.90;99.90;;;;;;5035382;28;20030;-72
2023/01/21 04:48:20;;;;;;;52.85;27.02;;;2.00;99.90;;;;;;5017832;28;20512;-72
2023/01/21 04:50:46;;;;;;;49.42;26.42;;;1.80;99.90;;;;;;5034431;28;20025;-72
2023/01/21 04:53:11;;;;;;;53.03;26.63;;;1.80;99.90;;;;;;5018225;28;20033;-72
2023/01/21 04:55:37;;;;;;;46.70;25.13;;;1.90;99.90;;;;;;5035511;28;20037;-72
2023/01/21 04:58:03;;;;;;;53.40;28.08;;;2.00;99.90;;;;;;5034129;28;20485;-72
2023/01/21 05:00:28;;;;;;;50.38;27.13;;;2.10;99.90;;;;;;5035600;28;20037;-72
2023/01/21 05:02:54;;;;;;;51.85;27.63;;;2.10;99.90;;;;;;5034972;28;20117;-72
2023/01/21 05:05:20;;;;;;;55.03;28.58;;;2.20;99.90;;;;;;5001255;28;20121;-72
2023/01/21 05:07:45;;;;;;;57.70;29.92;;;2.20;99.90;;;;;;5017284;28;20120;-72
2023/01/21 05:10:15;;;;;;;57.15;29.45;;;2.10;99.90;;;;;;5033974;28;20033;-72
2023/01/21 05:12:41;;;;;;;62.25;31.25;;;1.90;99.90;;;;;;5034005;28;20033;-72
2023/01/21 05:15:08;;;;;;;62.88;30.77;;;1.80;99.90;;;;;;5033500;28;20083;-72
2023/01/21 05:17:33;;;;;;;58.88;30.23;;;1.70;99.90;;;;;;5033952;28;20120;-72
2023/01/21 05:19:59;;;;;;;68.22;33.83;;;1.50;99.90;;;;;;5035279;28;20064;-72
2023/01/21 05:22:24;;;;;;;63.45;31.25;;;1.40;99.90;;;;;;5021101;28;20478;-72
2023/01/21 05:24:50;;;;;;;66.45;33.30;;;1.20;99.90;;;;;;5035512;28;20030;-72
2023/01/21 05:27:16;;;;;;;73.95;34.72;;;1.10;99.90;;;;;;5017370;28;20323;-73
2023/01/21 05:29:41;;;;;;;64.30;32.53;;;1.10;99.90;;;;;;5033279;28;20421;-72
2023/01/21 05:32:08;;;;;;;66.25;33.30;;;1.20;99.90;;;;;;5033694;28;20076;-72
2023/01/21 05:34:34;;;;;;;66.32;33.30;;;1.20;99.90;;;;;;5033085;28;20109;-72
2023/01/21 05:36:59;;;;;;;60.25;30.27;;;1.20;99.90;;;;;;5016537;28;20060;-72
2023/01/21 05:39:25;;;;;;;68.63;34.20;;;1.20;99.90;;;;;;5033560;28;20041;-72
2023/01/21 05:41:51;;;;;;;70.15;34.63;;;1.30;99.90;;;;;;5034283;28;20041;-72
2023/01/21 05:44:16;;;;;;;60.45;31.60;;;1.20;99.90;;;;;;5034492;28;20029;-72
2023/01/21 05:46:42;;;;;;;72.28;34.78;;;1.40;99.90;;;;;;5034927;28;20029;-72
2023/01/21 05:49:08;;;;;;;74.78;36.33;;;1.40;99.90;;;;;;5032901;28;20049;-72
2023/01/21 05:51:33;;;;;;;73.80;37.13;;;1.40;99.90;;;;;;5033309;28;20076;-72
2023/01/21 05:53:59;;;;;;;77.70;36.33;;;1.30;99.90;;;;;;5034633;28;20435;-72
2023/01/21 05:56:24;;;;;;;77.72;35.83;;;1.10;99.90;;;;;;5016481;28;20116;-72
2023/01/21 05:58:50;;;;;;;73.82;33.95;;;1.00;99.90;;;;;;5032937;28;20211;-73
2023/01/21 06:01:16;;;;;;;70.45;33.90;;;1.20;99.90;;;;;;5034519;28;20029;-72
2023/01/21 06:03:41;;;;;;;74.95;38.00;;;1.30;99.90;;;;;;5016145;28;20108;-72
2023/01/21 06:06:07;;;;;;;77.40;34.78;;;1.30;99.90;;;;;;5033168;28;20537;-72
2023/01/21 06:08:33;;;;;;;73.22;35.80;;;1.30;99.90;;;;;;5032793;28;20121;-72
2023/01/21 06:10:58;;;;;;;78.72;36.15;;;1.30;99.90;;;;;;5033303;28;20359;-72
2023/01/21 06:13:24;;;;;;;78.43;34.90;;;1.40;99.90;;;;;;5034063;28;20061;-72
2023/01/21 06:15:54;;;;;;;79.35;37.00;;;1.50;99.90;;;;;;5032713;28;20448;-72
2023/01/21 06:18:19;;;;;;;74.05;35.30;;;1.50;99.90;;;;;;5034138;28;20029;-72
2023/01/21 06:20:45;;;;;;;79.63;35.72;;;1.40;99.90;;;;;;5032479;28;20394;-72
2023/01/21 06:23:12;;;;;;;84.30;37.20;;;1.40;99.90;;;;;;5015684;28;20058;-72
2023/01/21 06:25:37;;;;;;;85.63;37.67;;;1.50;99.90;;;;;;5016787;28;20446;-72
2023/01/21 06:28:03;;;;;;;82.55;37.72;;;1.40;99.90;;;;;;5016281;28;20061;-72
2023/01/21 06:30:29;;;;;;;91.55;39.38;;;1.30;99.90;;;;;;5032720;28;20037;-72
2023/01/21 06:32:55;;;;;;;83.68;36.83;;;1.40;99.90;;;;;;5032087;28;20401;-72
2023/01/21 06:35:20;;;;;;;79.45;37.28;;;1.40;99.90;;;;;;5033743;28;20476;-72
2023/01/21 06:37:46;;;;;;;87.38;37.95;;;1.40;99.90;;;;;;5032389;28;20442;-72
2023/01/21 06:40:13;;;;;;;93.22;37.28;;;1.20;99.90;;;;;;5032756;28;20025;-71
2023/01/21 06:42:39;;;;;;;88.22;38.25;;;1.20;99.90;;;;;;5033049;28;20034;-72
2023/01/21 06:45:05;;;;;;;91.65;38.08;;;1.10;99.90;;;;;;5033423;28;20029;-72
2023/01/21 06:47:30;;;;;;;96.78;37.88;;;1.10;99.90;;;;;;5031113;28;20044;-72
2023/01/21 06:49:56;;;;;;;95.50;38.30;;;1.00;99.90;;;;;;5032168;28;20030;-72
2023/01/21 06:52:22;;;;;;;94.72;37.00;;;0.80;99.90;;;;;;4999087;28;20033;-72
2023/01/21 06:54:48;;;;;;;92.82;37.33;;;0.90;99.90;;;;;;5032984;28;20033;-73
2023/01/21 06:57:14;;;;;;;89.53;37.28;;;0.90;99.90;;;;;;5015415;28;20488;-72
2023/01/21 06:59:40;;;;;;;87.65;36.50;;;1.00;99.90;;;;;;5031887;28;20041;-72
2023/01/21 07:02:06;;;;;;;88.88;37.33;;;1.00;99.90;;;;;;5031920;28;20041;-72
2023/01/21 07:04:32;;;;;;;92.13;38.33;;;0.90;99.90;;;;;;5032029;28;20028;-73
2023/01/21 07:06:57;;;;;;;88.45;34.45;;;0.90;99.90;;;;;;5032483;28;20452;-72
2023/01/21 07:09:23;;;;;;;106.20;39.65;;;1.10;99.90;;;;;;5033624;28;20117;-73
2023/01/21 07:11:49;;;;;;;100.68;39.92;;;1.10;99.90;;;;;;5016622;28;20425;-72
2023/01/21 07:14:15;;;;;;;100.28;39.47;;;0.90;99.90;;;;;;5015773;28;20470;-72
2023/01/21 07:16:41;;;;;;;97.20;37.60;;;0.90;99.90;;;;;;5032980;28;20346;-72
2023/01/21 07:19:06;;;;;;;97.85;39.95;;;0.90;99.90;;;;;;5031704;28;20335;-72
2023/01/21 07:21:32;;;;;;;91.15;37.40;;;0.80;99.90;;;;;;5031554;28;20025;-72
2023/01/21 07:23:59;;;;;;;98.25;38.28;;;0.90;99.90;;;;;;5031371;28;20045;-72
2023/01/21 07:26:25;;;;;;;98.68;39.22;;;1.00;99.90;;;;;;5031564;28;20036;-72
2023/01/21 07:28:50;;;;;;;105.20;37.63;;;0.90;99.90;;;;;;5014983;28;20359;-72
2023/01/21 07:31:16;;;;;;;91.90;35.85;;;0.80;99.90;;;;;;5031213;28;20059;-72
2023/01/21 07:33:41;;;;;;;95.25;36.90;;;0.80;99.90;;;;;;5031411;28;20496;-72
2023/01/21 07:36:07;;;;;;;91.47;36.22;;;0.80;99.90;;;;;;5031867;28;20312;-72
2023/01/21 07:38:33;;;;;;;100.45;38.00;;;0.80;99.90;;;;;;5031303;28;20083;-73
2023/01/21 07:40:59;;;;;;;88.70;34.92;;;0.80;99.90;;;;;;5031098;28;20038;-73
2023/01/21 07:43:26;;;;;;;86.25;34.97;;;0.80;99.90;;;;;;5031069;28;20439;-72
2023/01/21 07:45:52;;;;;;;93.13;35.47;;;0.90;99.90;;;;;;5031444;28;20026;-72
2023/01/21 07:48:18;;;;;;;96.25;39.75;;;0.90;99.90;;;;;;5032729;28;20140;-72
2023/01/21 07:50:44;;;;;;;88.53;36.67;;;0.90;99.90;;;;;;5033005;28;20030;-72
2023/01/21 07:53:11;;;;;;;88.97;35.72;;;0.90;99.90;;;;;;5031737;28;20521;-72
2023/01/21 07:55:37;;;;;;;81.90;36.85;;;1.10;99.90;;;;;;5031678;28;20025;-72
2023/01/21 07:58:02;;;;;;;88.40;38.70;;;1.20;99.90;;;;;;5033620;28;20056;-72
2023/01/21 08:00:28;;;;;;;91.40;38.13;;;1.10;99.90;;;;;;5035539;28;20025;-72
2023/01/21 08:02:55;;;;;;;85.80;38.15;;;1.00;99.90;;;;;;5035128;28;20034;-73
2023/01/21 08:05:22;;;;;;;89.03;38.58;;;0.90;99.90;;;;;;5035665;28;20025;-72
2023/01/21 08:07:48;;;;;;;82.00;36.90;;;1.00;99.90;;;;;;5036731;28;20032;-72
2023/01/21 08:10:14;;;;;;;88.93;38.38;;;1.00;99.90;;;;;;5035048;28;20038;-72
2023/01/21 08:12:43;;;;;;;89.30;39.85;;;1.20;99.90;;;;;;5018661;28;20043;-72
2023/01/21 08:15:10;;;;;;;85.95;38.67;;;1.30;99.90;;;;;;5035247;28;20033;-72
2023/01/21 08:17:41;;;;;;;84.28;38.30;;;1.40;99.90;;;;;;5035140;28;20116;-72
2023/01/21 08:20:08;;;;;;;80.72;36.65;;;1.50;99.90;;;;;;5036243;28;20021;-72
2023/01/21 08:22:35;;;;;;;78.65;36.08;;;1.60;99.90;;;;;;5036272;28;20092;-72
2023/01/21 08:25:01;;;;;;;78.85;36.58;;;1.70;99.90;;;;;;5019023;28;20095;-72
2023/01/21 08:27:27;;;;;;;86.40;38.55;;;1.70;99.90;;;;;;5036098;28;20104;-73
2023/01/21 08:29:52;;;;;;;82.63;37.00;;;1.80;99.90;;;;;;5018857;28;20112;-72
2023/01/21 08:32:18;;;;;;;85.63;39.47;;;1.80;99.90;;;;;;5036020;28;20444;-72
2023/01/21 08:34:44;;;;;;;88.55;38.05;;;1.70;99.90;;;;;;5035135;28;20323;-72
2023/01/21 08:37:09;;;;;;;77.72;36.55;;;1.70;99.90;;;;;;5035656;28;20117;-72
2023/01/21 08:39:35;;;;;;;86.78;38.45;;;1.80;99.90;;;;;;5034817;28;20026;-73
2023/01/21 08:42:01;;;;;;;84.43;36.88;;;1.80;99.90;;;;;;5018151;28;20560;-72
2023/01/21 08:44:26;;;;;;;82.72;36.47;;;1.90;99.90;;;;;;5035175;28;20537;-72
2023/01/21 08:46:52;;;;;;;80.07;37.92;;;1.80;99.90;;;;;;5018575;28;20374;-72
2023/01/21 08:49:21;;;;;;;80.68;36.92;;;1.80;99.90;;;;;;5034990;28;20084;-72
2023/01/21 08:51:46;;;;;;;76.15;34.95;;;1.90;99.90;;;;;;5036784;28;20491;-72
2023/01/21 08:54:12;;;;;;;75.63;33.92;;;2.00;99.90;;;;;;5037444;28;20037;-72
2023/01/21 08:56:38;;;;;;;75.40;35.67;;;2.10;99.90;;;;;;5019104;28;20033;-72
2023/01/21 08:59:03;;;;;;;69.50;33.97;;;2.20;99.90;;;;;;5034316;28;20101;-72
2023/01/21 09:01:29;;;;;;;73.80;36.28;;;2.30;99.90;;;;;;5035789;28;20037;-71
2023/01/21 09:03:56;;;;;;;75.25;35.13;;;2.30;99.90;;;;;;5034455;28;20111;-72
2023/01/21 09:06:23;;;;;;;73.50;34.70;;;2.20;99.90;;;;;;5035079;28;20025;-72
2023/01/21 09:08:49;;;;;;;71.00;34.00;;;2.20;99.90;;;;;;5016234;28;20087;-71
2023/01/21 09:11:15;;;;;;;74.03;34.45;;;2.30;99.90;;;;;;5033916;28;20025;-71
2023/01/21 09:13:43;;;;;;;67.10;33.47;;;2.40;99.90;;;;;;5033760;28;20030;-72
2023/01/21 09:16:12;;;;;;;67.80;32.70;;;2.40;99.90;;;;;;5033781;28;20445;-72
2023/01/21 09:18:38;;;;;;;71.50;34.35;;;2.50;99.90;;;;;;5034960;28;20028;-72
2023/01/21 09:21:05;;;;;;;68.57;34.22;;;2.60;99.90;;;;;;5034486;28;20331;-74
2023/01/21 09:23:33;;;;;;;67.38;33.50;;;2.60;99.90;;;;;;5034982;28;20041;-72
2023/01/21 09:26:04;;;;;;;68.57;33.20;;;2.60;99.90;;;;;;5033522;28;20064;-72
2023/01/21 09:28:35;;;;;;;70.20;31.05;;;2.60;99.90;;;;;;5033661;28;20025;-72
2023/01/21 09:31:07;;;;;;;66.95;32.08;;;2.70;99.90;;;;;;5035238;28;20021;-72
2023/01/21 09:33:35;;;;;;;63.00;31.75;;;2.80;99.90;;;;;;5033525;28;20095;-72
2023/01/21 09:36:03;;;;;;;67.47;33.20;;;2.80;99.90;;;;;;5033406;28;20051;-72
2023/01/21 09:38:30;;;;;;;67.95;32.35;;;2.90;99.90;;;;;;5033483;28;20116;-73
2023/01/21 09:41:02;;;;;;;67.60;31.42;;;2.90;99.90;;;;;;5034925;28;20029;-73
2023/01/21 09:43:39;;;;;;;49.20;25.42;;;2.90;99.90;;;;;;5035016;28;20029;-74
2023/01/21 09:46:14;;;;;;;67.78;31.63;;;3.10;99.90;;;;;;5034735;28;20029;-73
2023/01/21 09:48:45;;;;;;;57.50;29.70;;;3.20;99.90;;;;;;5034922;28;20474;-76
2023/01/21 09:51:37;;;;;;;59.63;30.92;;;3.40;99.90;;;;;;5033778;28;20029;-73
2023/01/21 09:54:22;;;;;;;62.08;31.15;;;3.60;99.90;;;;;;5028002;28;20033;-76
2023/01/21 09:57:21;;;;;;;61.80;30.48;;;3.60;99.90;;;;;;5034528;28;20102;-77
2023/01/21 09:59:54;;;;;;;63.47;31.48;;;3.60;99.90;;;;;;5034961;28;20551;-77
2023/01/21 10:02:32;;;;;;;59.88;30.45;;;3.50;99.90;;;;;;5035276;28;20099;-76
2023/01/21 10:05:06;;;;;;;63.88;31.95;;;3.50;99.90;;;;;;5033237;28;20331;-77
2023/01/21 10:07:59;;;;;;;65.30;31.80;;;3.30;99.90;;;;;;5032968;28;20079;-77
2023/01/21 10:10:39;;;;;;;68.13;32.10;;;3.30;99.90;;;;;;5033481;28;20038;-77
2023/01/21 10:13:26;;;;;;;57.08;28.17;;;3.30;99.90;;;;;;5032167;28;20038;-78
2023/01/21 10:16:07;;;;;;;60.85;29.27;;;3.50;99.90;;;;;;5033859;28;20099;-76
2023/01/21 10:18:37;;;;;;;62.72;28.27;;;3.70;99.90;;;;;;5034039;28;20037;-77
2023/01/21 10:21:16;;;;;;;61.60;30.02;;;3.80;99.90;;;;;;5031256;28;20092;-77
2023/01/21 10:23:48;;;;;;;46.97;24.90;;;4.00;99.90;;;;;;5032793;28;20079;-77
2023/01/21 10:26:16;;;;;;;54.22;27.10;;;4.10;99.90;;;;;;5033022;28;20025;-77
2023/01/21 10:28:50;;;;;;;52.13;27.52;;;4.30;99.90;;;;;;5033634;28;20128;-76
2023/01/21 10:31:23;;;;;;;57.97;29.70;;;4.30;99.90;;;;;;5034357;28;20022;-76
2023/01/21 10:33:49;;;;;;;;;;;4.30;99.90;;;;;;5035083;28;20512;-77
2023/01/21 10:36:28;;;;;;;47.25;25.85;;;4.20;99.90;;;;;;5034720;28;19905;-75
2023/01/21 10:38:54;;;;;;;54.70;29.52;;;4.10;99.90;;;;;;5033435;28;20367;-75
2023/01/21 10:42:04;;;;;;;57.97;28.55;;;4.20;99.90;;;;;;5033126;28;20472;-76
2023/01/21 10:44:47;;;;;;;53.88;28.70;;;4.10;99.90;;;;;;5011676;28;20069;-77
2023/01/21 10:47:24;;;;;;;57.13;28.55;;;4.20;99.90;;;;;;5033006;28;20041;-77
2023/01/21 10:49:58;;;;;;;57.75;28.30;;;4.30;99.90;;;;;;5032057;28;20393;-77
2023/01/21 10:52:23;;;;;;;51.97;26.48;;;4.20;99.90;;;;;;5032066;28;20026;-77
2023/01/21 10:55:17;;;;;;;51.80;25.75;;;4.10;99.90;;;;;;5031708;28;20022;-77
2023/01/21 10:57:51;;;;;;;50.20;26.45;;;4.30;99.90;;;;;;5032085;28;20029;-73
2023/01/21 11:00:19;;;;;;;54.40;28.60;;;5.00;99.90;;;;;;5031706;28;20045;-73
2023/01/21 11:02:50;;;;;;;48.13;26.70;;;5.00;99.90;;;;;;5032730;28;20120;-77
2023/01/21 11:05:18;;;;;;;48.85;25.92;;;4.90;99.90;;;;;;5032851;28;20025;-76
2023/01/21 11:07:46;;;;;;;42.03;23.70;;;4.80;99.90;;;;;;5031405;28;20032;-74
2023/01/21 11:10:18;;;;;;;47.92;26.20;;;4.80;99.90;;;;;;5032701;28;20022;-74
2023/01/21 11:12:44;;;;;;;51.00;27.10;;;4.90;99.90;;;;;;5033002;28;20029;-73
2023/01/21 11:15:15;;;;;;;47.80;26.88;;;4.80;99.90;;;;;;5015252;28;20456;-73
2023/01/21 11:17:44;;;;;;;45.70;25.48;;;4.70;99.90;;;;;;5032442;28;20033;-72
2023/01/21 11:20:32;;;;;;;45.80;24.38;;;4.60;99.90;;;;;;5031438;28;20026;-72
2023/01/21 11:23:00;;;;;;;49.38;26.83;;;4.70;99.90;;;;;;5031246;28;20033;-73
2023/01/21 11:25:37;;;;;;;42.47;24.60;;;4.70;99.90;;;;;;5015172;28;20030;-73
2023/01/21 11:28:04;;;;;;;53.83;28.20;;;4.80;99.90;;;;;;5032798;28;20033;-74
2023/01/21 11:30:36;;;;;;;43.03;23.20;;;4.90;99.90;;;;;;5031531;28;20029;-74
2023/01/21 11:33:32;;;;;;;41.17;22.88;;;4.90;99.90;;;;;;5032520;28;20033;-73
2023/01/21 11:36:09;;;;;;;39.20;22.15;;;5.30;99.90;;;;;;5023128;28;20108;-72
2023/01/21 11:38:36;;;;;;;42.08;22.52;;;5.70;99.90;;;;;;5033368;28;20029;-73
2023/01/21 11:41:18;;;;;;;38.90;21.77;;;5.90;99.90;;;;;;5031351;28;20462;-74
2023/01/21 11:43:53;;;;;;;38.30;20.52;;;5.80;99.90;;;;;;5031657;28;20079;-73
2023/01/21 11:46:29;;;;;;;41.17;22.02;;;5.50;99.90;;;;;;5032727;28;20104;-74
2023/01/21 11:49:07;;;;;;;35.92;19.48;;;5.30;99.90;;;;;;5030871;28;20056;-73
2023/01/21 11:51:38;;;;;;;33.22;18.73;;;5.40;99.90;;;;;;5031040;28;20075;-74
2023/01/21 11:54:22;;;;;;;35.00;20.02;;;5.60;99.90;;;;;;5031192;28;20037;-74
2023/01/21 11:57:23;;;;;;;34.78;19.23;;;5.80;99.90;;;;;;5032133;28;20053;-73
2023/01/21 11:59:49;;;;;;;36.97;20.10;;;6.00;99.90;;;;;;5030971;28;20112;-74
2023/01/21 12:02:29;;;;;;;36.70;20.20;;;5.90;99.90;;;;;;5032230;28;20030;-74
2023/01/21 12:04:59;;;;;;;41.88;22.27;;;5.70;99.90;;;;;;5031339;28;20475;-74
2023/01/21 12:07:32;;;;;;;36.33;20.30;;;5.70;99.90;;;;;;5031751;28;20025;-74
2023/01/21 12:10:12;;;;;;;35.03;19.73;;;5.50;99.90;;;;;;5032325;28;20030;-74
2023/01/21 12:12:56;;;;;;;31.25;17.77;;;5.10;99.90;;;;;;5032409;28;20117;-75
2023/01/21 12:15:31;;;;;;;34.28;18.35;;;5.00;99.90;;;;;;5032408;28;20030;-75
2023/01/21 12:18:32;;;;;;;31.83;18.83;;;5.00;99.90;;;;;;5034463;28;20025;-73
2023/01/21 12:21:29;;;;;;;31.88;18.00;;;4.90;99.90;;;;;;5034807;28;20105;-72
2023/01/21 12:24:18;;;;;;;28.48;15.95;;;5.00;99.90;;;;;;5032569;28;20083;-72
2023/01/21 12:26:47;;;;;;;26.40;14.75;;;5.10;99.90;;;;;;5031017;28;20168;-73
2023/01/21 12:29:41;;;;;;;29.02;16.60;;;5.30;99.90;;;;;;5030962;28;20068;-71
2023/01/21 12:32:12;;;;;;;32.13;17.67;;;5.40;99.90;;;;;;5031195;28;20554;-73
2023/01/21 12:34:48;;;;;;;34.97;17.73;;;5.40;99.90;;;;;;5031851;28;20029;-74
2023/01/21 12:37:25;;;;;;;30.02;17.73;;;5.20;99.90;;;;;;5031116;28;20489;-76
2023/01/21 12:39:54;;;;;;;33.50;18.70;;;5.00;99.90;;;;;;5032077;28;20017;-74
2023/01/21 12:42:28;;;;;;;35.53;18.75;;;4.90;99.90;;;;;;5030895;28;20413;-72
2023/01/21 12:44:59;;;;;;;31.58;18.88;;;4.80;99.90;;;;;;5033897;28;20466;-72
2023/01/21 12:47:41;;;;;;;34.70;19.05;;;4.80;99.90;;;;;;5034996;28;20021;-72
2023/01/21 12:50:21;;;;;;;32.80;18.45;;;4.70;99.90;;;;;;5035958;28;20040;-72
2023/01/21 12:53:08;;;;;;;34.30;20.17;;;4.60;99.90;;;;;;5036248;28;20030;-72
2023/01/21 12:56:13;;;;;;;33.90;18.23;;;4.50;99.90;;;;;;5034245;28;20034;-72
2023/01/21 12:59:10;;;;;;;37.80;19.92;;;4.30;99.90;;;;;;5035538;28;20026;-72